Time;durP1;ratioP1;P1;durP2;ratioP2;P2;SDS_P1;SDS_P2;PMS_P1;PMS_P2;Temp;Humidity;BMP_temperature;BMP_pressure;BME280_temperature;BME280_humidity;BME280_pressure;Samples;Min_cycle;Max_cycle;Signal;HPM_P1;HPM_P2
2023/01/06 00:00:19;;;;;;;14.10;4.60;;;;;;;3.45;88.75;101176.40;107325;1249;98968;-77
2023/01/06 00:02:45;;;;;;;11.70;4.30;;;;;;;3.45;88.49;101175.70;107184;1249;138961;-77
2023/01/06 00:05:11;;;;;;;15.00;4.70;;;;;;;3.45;88.70;101180.12;107234;1253;112403;-75
2023/01/06 00:07:36;;;;;;;12.60;4.80;;;;;;;3.44;88.75;101187.17;107132;1246;138639;-75
2023/01/06 00:10:02;;;;;;;13.00;5.20;;;;;;;3.45;88.71;101188.42;107289;1254;99080;-75
2023/01/06 00:12:27;;;;;;;17.50;4.20;;;;;;;3.47;88.72;101190.52;107388;1251;98980;-76
2023/01/06 00:14:54;;;;;;;18.70;5.20;;;;;;;3.47;88.73;101192.29;107263;1243;138422;-76
2023/01/06 00:17:20;;;;;;;13.50;4.40;;;;;;;3.46;88.71;101199.54;107218;1254;108816;-76
2023/01/06 00:19:45;;;;;;;16.10;4.50;;;;;;;3.46;88.77;101200.95;107019;1254;138724;-76
2023/01/06 00:22:10;;;;;;;17.00;5.00;;;;;;;3.47;89.09;101202.36;107281;1253;99044;-76
2023/01/06 00:24:35;;;;;;;22.60;6.40;;;;;;;3.47;88.98;101206.95;107238;1250;99148;-75
2023/01/06 00:27:01;;;;;;;11.60;4.50;;;;;;;3.46;88.92;101206.42;107078;1244;138947;-75
2023/01/06 00:29:26;;;;;;;17.60;4.40;;;;;;;3.45;88.72;101209.62;107306;1257;97898;-75
2023/01/06 00:31:52;;;;;;;15.30;4.80;;;;;;;3.44;88.78;101210.33;107156;1250;138559;-75
2023/01/06 00:34:17;;;;;;;19.50;4.30;;;;;;;3.41;89.06;101206.98;107303;1243;99032;-75
2023/01/06 00:36:42;;;;;;;23.60;5.30;;;;;;;3.39;88.76;101210.54;107287;1248;99085;-76
2023/01/06 00:39:11;;;;;;;16.20;5.10;;;;;;;3.36;88.88;101213.73;107158;1257;138435;-75
2023/01/06 00:44:20;;;;;;;18.70;4.70;;;;;;;3.29;88.94;101223.13;107087;1251;138610;-76
2023/01/06 00:46:45;;;;;;;12.40;4.40;;;;;;;3.27;89.04;101225.42;107236;1249;99076;-76
2023/01/06 00:49:10;;;;;;;16.90;4.40;;;;;;;3.26;89.11;101227.20;107334;1245;99122;-77
2023/01/06 00:51:38;;;;;;;11.80;4.40;;;;;;;3.25;89.10;101231.27;107120;1242;138512;-76
2023/01/06 00:54:05;;;;;;;9.40;3.10;;;;;;;3.27;89.15;101232.84;107272;1249;97879;-76
2023/01/06 00:56:31;;;;;;;10.40;3.20;;;;;;;3.26;89.08;101230.73;107167;1249;138230;-75
2023/01/06 00:58:56;;;;;;;11.20;4.30;;;;;;;3.25;89.11;101233.56;107326;1247;100187;-76
2023/01/06 01:01:21;;;;;;;10.10;3.80;;;;;;;3.24;89.20;101240.45;107068;1250;139071;-76
2023/01/06 01:03:47;;;;;;;8.80;3.50;;;;;;;3.28;89.20;101240.09;107236;1254;99226;-77
2023/01/06 01:06:12;;;;;;;10.70;3.20;;;;;;;3.26;89.20;101240.61;107258;1252;99052;-76
2023/01/06 01:08:37;;;;;;;19.90;4.40;;;;;;;3.24;89.05;101241.33;107198;1250;138316;-76
2023/01/06 01:11:09;;;;;;;8.40;3.60;;;;;;;3.23;89.10;101243.10;107295;1249;99750;-76
2023/01/06 01:13:35;;;;;;;12.50;3.60;;;;;;;3.24;89.31;101246.98;107221;1251;138371;-76
2023/01/06 01:16:08;;;;;;;13.50;3.80;;;;;;;3.25;89.30;101246.63;107229;1252;99215;-76
2023/01/06 01:18:34;;;;;;;10.80;3.90;;;;;;;3.26;89.04;101250.69;107136;1246;112285;-76
2023/01/06 01:20:59;;;;;;;12.10;4.00;;;;;;;3.25;89.15;101255.27;107198;1243;138574;-75
2023/01/06 01:23:25;;;;;;;9.40;3.70;;;;;;;3.20;89.07;101255.11;107273;1242;98402;-76
2023/01/06 01:25:57;;;;;;;13.30;4.00;;;;;;;3.17;89.29;101254.42;107105;1250;138947;-75
2023/01/06 01:28:22;;;;;;;10.20;4.00;;;;;;;3.16;89.20;101259.38;107234;1247;113099;-76
2023/01/06 01:30:48;;;;;;;13.90;3.90;;;;;;;3.12;89.22;101262.56;107248;1258;99457;-75
2023/01/06 01:33:13;;;;;;;12.80;4.00;;;;;;;3.07;89.20;101262.76;107141;1251;138701;-76
2023/01/06 01:35:38;;;;;;;12.60;5.10;;;;;;;3.04;89.02;101265.77;107164;1250;98984;-75
2023/01/06 01:38:03;;;;;;;13.70;4.10;;;;;;;3.03;89.12;101272.12;107258;1244;138347;-76
2023/01/06 01:40:29;;;;;;;11.70;4.10;;;;;;;2.98;89.20;101266.48;107112;1250;101420;-76
2023/01/06 01:42:54;;;;;;;17.70;4.20;;;;;;;2.93;89.01;101272.15;107201;1254;99188;-76
2023/01/06 01:45:24;;;;;;;8.30;3.30;;;;;;;2.88;89.03;101267.04;107078;1251;138751;-76
2023/01/06 01:47:52;;;;;;;13.20;4.90;;;;;;;2.82;88.97;101271.82;107277;1249;99499;-75
2023/01/06 01:50:26;;;;;;;9.20;4.10;;;;;;;2.78;89.25;101269.88;107175;1250;138905;-76
2023/01/06 01:52:56;;;;;;;11.20;3.50;;;;;;;2.74;89.23;101276.41;107182;1252;99111;-75
2023/01/06 01:55:23;;;;;;;13.60;4.10;;;;;;;2.69;89.16;101276.24;107069;1253;138542;-75
2023/01/06 01:58:07;;;;;;;16.90;5.30;;;;;;;2.66;89.18;101279.42;107206;1252;102476;-75
2023/01/06 02:00:34;;;;;;;15.70;4.30;;;;;;;2.61;89.25;101282.27;107116;1251;99072;-75
2023/01/06 02:02:59;;;;;;;14.90;4.20;;;;;;;2.57;89.23;101281.23;107025;1250;138428;-75
2023/01/06 02:05:26;;;;;;;9.40;4.10;;;;;;;2.55;89.20;101285.11;107199;1250;97958;-74
2023/01/06 02:07:53;;;;;;;12.30;4.00;;;;;;;2.54;89.30;101290.58;107152;1247;138590;-75
2023/01/06 02:10:22;;;;;;;9.40;3.90;;;;;;;2.51;89.12;101288.99;107210;1257;98978;-74
2023/01/06 02:12:51;;;;;;;15.70;5.30;;;;;;;2.50;89.26;101288.81;107308;1249;108455;-75
2023/01/06 02:15:18;;;;;;;10.60;4.60;;;;;;;2.48;89.20;101287.76;107145;1251;138692;-75
2023/01/06 02:18:08;;;;;;;12.30;3.80;;;;;;;2.47;89.18;101288.29;107330;1251;99078;-75
2023/01/06 02:20:55;;;;;;;15.10;5.00;;;;;;;2.43;89.11;101289.52;107178;1237;138371;-75
2023/01/06 02:23:42;;;;;;;18.50;4.70;;;;;;;2.39;89.29;101289.52;107313;1251;99220;-75
2023/01/06 02:26:36;;;;;;;19.40;5.70;;;;;;;2.38;89.22;101293.58;107190;1248;139898;-75
2023/01/06 02:29:20;;;;;;;12.50;4.00;;;;;;;2.38;89.21;101285.64;107295;1251;99017;-76
2023/01/06 02:32:07;;;;;;;8.40;4.10;;;;;;;2.35;89.09;101286.16;107177;1244;139047;-75
2023/01/06 02:34:57;;;;;;;10.70;3.60;;;;;;;2.33;89.21;101290.23;107155;1251;112604;-74
2023/01/06 02:37:50;;;;;;;20.90;5.20;;;;;;;2.32;89.24;101290.40;107130;1250;138850;-75
2023/01/06 02:40:34;;;;;;;12.20;3.80;;;;;;;2.31;89.31;101288.64;107285;1247;107196;-75
2023/01/06 02:43:12;;;;;;;14.60;4.30;;;;;;;2.30;89.28;101300.63;107346;1243;99127;-75
2023/01/06 02:45:53;;;;;;;21.10;4.10;;;;;;;2.32;89.41;101301.86;107174;1248;139030;-75
2023/01/06 02:48:40;;;;;;;10.10;3.90;;;;;;;2.33;89.44;101302.04;107338;1243;112359;-75
2023/01/06 02:51:31;;;;;;;17.30;3.80;;;;;;;2.33;89.41;101295.69;107261;1244;138520;-75
2023/01/06 02:54:07;;;;;;;14.80;4.30;;;;;;;2.34;89.47;101295.88;107262;1249;109874;-75
2023/01/06 02:56:42;;;;;;;12.10;4.20;;;;;;;2.35;89.41;101292.16;107143;1254;138484;-76
2023/01/06 02:59:19;;;;;;;11.70;3.90;;;;;;;2.37;89.43;101287.40;107343;1251;98789;-74
2023/01/06 03:01:48;;;;;;;9.90;4.40;;;;;;;2.38;89.35;101292.88;107153;1248;138711;-75
2023/01/06 03:04:23;;;;;;;11.20;3.30;;;;;;;2.36;89.32;101292.17;107158;1246;99767;-75
2023/01/06 03:06:51;;;;;;;14.50;4.50;;;;;;;2.36;89.57;101295.52;107224;1254;109174;-75
2023/01/06 03:09:21;;;;;;;9.20;4.10;;;;;;;2.37;89.70;101297.63;107161;1245;138799;-75
2023/01/06 03:11:50;;;;;;;9.10;4.40;;;;;;;2.40;89.55;101293.21;107223;1254;99165;-75
2023/01/06 03:14:29;;;;;;;16.80;6.60;;;;;;;2.41;89.62;101290.93;107245;1253;138210;-75
2023/01/06 03:16:54;;;;;;;14.80;4.90;;;;;;;2.43;89.61;101294.29;107178;1254;99274;-75
2023/01/06 03:19:21;;;;;;;19.30;4.60;;;;;;;2.45;89.78;101300.11;107049;1252;138560;-75
2023/01/06 03:21:48;;;;;;;16.80;4.50;;;;;;;2.46;89.81;101288.98;107268;1243;99147;-74
2023/01/06 03:24:14;;;;;;;11.60;4.60;;;;;;;2.46;89.61;101291.98;107248;1251;113114;-75
2023/01/06 03:26:42;;;;;;;19.10;5.30;;;;;;;2.49;89.84;101290.05;107132;1264;138691;-75
2023/01/06 03:29:11;;;;;;;11.70;5.10;;;;;;;2.51;89.95;101290.58;107288;1246;99049;-75
2023/01/06 03:31:59;;;;;;;16.80;4.70;;;;;;;2.53;89.82;101292.88;107075;1251;138533;-75
2023/01/06 03:34:50;;;;;;;11.60;5.10;;;;;;;2.56;89.77;101290.75;107360;1248;99090;-75
2023/01/06 03:37:18;;;;;;;;;;;;;;;2.60;89.98;101297.80;107212;1242;138507;-75
2023/01/06 03:39:49;;;;;;;13.10;4.90;;;;;;;2.60;89.97;101299.20;107328;1248;100457;-75
2023/01/06 03:45:37;;;;;;;18.10;4.00;;;;;;;2.63;90.06;101298.48;107234;1248;138354;-75
2023/01/06 03:48:12;;;;;;;15.50;5.50;;;;;;;2.64;89.91;101293.71;107283;1251;97843;-74
2023/01/06 03:50:44;;;;;;;15.20;4.40;;;;;;;2.67;89.97;101294.60;107195;1251;138324;-75
2023/01/06 03:53:21;;;;;;;11.00;4.40;;;;;;;2.67;89.99;101296.01;107247;1242;100297;-75
2023/01/06 03:55:57;;;;;;;14.50;4.70;;;;;;;2.68;89.99;101301.13;106974;1238;139230;-75
2023/01/06 03:58:23;;;;;;;16.40;4.50;;;;;;;2.71;90.02;101302.71;107145;1254;98973;-74
2023/01/06 04:00:49;;;;;;;11.30;4.20;;;;;;;2.73;90.17;101304.48;107174;1246;99210;-75
2023/01/06 04:03:15;;;;;;;18.00;5.10;;;;;;;2.75;90.20;101299.36;107159;1254;138603;-75
2023/01/06 04:05:40;;;;;;;16.90;4.90;;;;;;;2.78;90.36;101295.47;107287;1251;99044;-75
2023/01/06 04:08:06;;;;;;;16.30;5.40;;;;;;;2.81;90.20;101292.99;107108;1257;138773;-75
2023/01/06 04:10:31;;;;;;;17.10;5.60;;;;;;;2.84;90.40;101290.34;107186;1254;98986;-75
2023/01/06 04:12:56;;;;;;;16.80;4.90;;;;;;;2.86;90.29;101293.34;107317;1251;98953;-76
2023/01/06 04:15:28;;;;;;;18.40;6.60;;;;;;;2.87;90.07;101299.88;107180;1247;138397;-78
2023/01/06 04:17:53;;;;;;;;;;;;;;;2.86;90.32;101297.05;107329;1251;99111;-78
2023/01/06 04:20:24;;;;;;;15.80;5.50;;;;;;;2.84;90.16;101295.45;107303;1243;124688;-78
2023/01/06 04:22:49;;;;;;;10.60;4.50;;;;;;;2.85;90.44;101294.58;107393;1243;113488;-78
2023/01/06 04:25:14;;;;;;;12.80;4.00;;;;;;;2.87;90.53;101300.76;107215;1250;139382;-77
2023/01/06 04:27:39;;;;;;;11.80;4.40;;;;;;;2.91;90.32;101304.45;107448;1251;98966;-78
2023/01/06 04:30:06;;;;;;;11.90;4.10;;;;;;;2.93;90.38;101303.39;107305;1251;99090;-78
2023/01/06 04:32:31;;;;;;;14.00;4.80;;;;;;;2.96;90.39;101297.04;107171;1241;138252;-78
2023/01/06 04:34:57;;;;;;;21.00;5.10;;;;;;;3.00;90.49;101295.61;107345;1257;99221;-78
2023/01/06 04:37:22;;;;;;;13.60;4.10;;;;;;;3.02;90.50;101298.43;107148;1254;138584;-78
2023/01/06 04:39:48;;;;;;;14.80;4.80;;;;;;;3.03;90.39;101298.43;107366;1253;99049;-78
2023/01/06 04:42:13;;;;;;;15.30;6.00;;;;;;;3.04;90.59;101300.90;107201;1254;99168;-77
2023/01/06 04:44:38;;;;;;;11.00;5.20;;;;;;;3.06;90.61;101297.89;107147;1247;138380;-78
2023/01/06 04:47:04;;;;;;;14.30;5.30;;;;;;;3.08;90.52;101297.70;107378;1245;97891;-77
2023/01/06 04:49:29;;;;;;;18.30;5.90;;;;;;;3.08;90.52;101296.13;107314;1251;138856;-77
2023/01/06 04:51:54;;;;;;;12.80;5.60;;;;;;;3.08;90.60;101296.65;107252;1253;99089;-78
2023/01/06 04:54:20;;;;;;;12.90;5.70;;;;;;;3.08;90.61;101302.48;107240;1249;99087;-78
2023/01/06 04:56:45;;;;;;;14.70;6.10;;;;;;;3.10;90.75;101307.23;107081;1254;140852;-78
2023/01/06 04:59:10;;;;;;;17.00;5.70;;;;;;;3.09;90.67;101305.65;107352;1246;98524;-78
2023/01/06 05:01:37;;;;;;;13.80;5.60;;;;;;;3.07;90.61;101306.19;107002;1246;138645;-77
2023/01/06 05:04:04;;;;;;;10.60;4.90;;;;;;;3.06;90.69;101299.83;107269;1255;98990;-78
2023/01/06 05:06:30;;;;;;;15.30;5.70;;;;;;;3.07;90.54;101292.24;107182;1246;100001;-77
2023/01/06 05:08:55;;;;;;;11.20;5.00;;;;;;;3.08;90.70;101285.89;107143;1245;139132;-78
2023/01/06 05:11:23;;;;;;;14.70;5.00;;;;;;;3.09;90.82;101285.89;107248;1237;100249;-77
2023/01/06 05:13:49;;;;;;;18.90;5.40;;;;;;;3.11;90.63;101284.65;107234;1235;138735;-79
2023/01/06 05:16:19;;;;;;;13.70;4.80;;;;;;;3.12;90.68;101282.70;107214;1251;99092;-78
2023/01/06 05:18:44;;;;;;;12.80;4.90;;;;;;;3.12;90.88;101290.64;107173;1253;113304;-78
2023/01/06 05:21:10;;;;;;;17.90;5.70;;;;;;;3.12;90.89;101284.81;107106;1251;138736;-78
2023/01/06 05:23:37;;;;;;;15.10;5.40;;;;;;;3.13;90.93;101284.27;107276;1248;99057;-79
2023/01/06 05:26:03;;;;;;;10.70;4.60;;;;;;;3.16;90.99;101288.33;107060;1246;138399;-79
2023/01/06 05:28:30;;;;;;;11.10;4.70;;;;;;;3.17;90.70;101286.73;107315;1242;99211;-78
2023/01/06 05:31:03;;;;;;;20.40;5.30;;;;;;;3.15;90.70;101283.39;107127;1253;99283;-79
2023/01/06 05:33:30;;;;;;;10.30;4.20;;;;;;;3.14;90.77;101288.34;107070;1242;138258;-78
2023/01/06 05:35:59;;;;;;;16.40;5.50;;;;;;;3.12;90.62;101290.11;107212;1242;98967;-78
2023/01/06 05:38:25;;;;;;;16.20;5.50;;;;;;;3.13;90.86;101299.46;107077;1244;138407;-77
2023/01/06 05:40:52;;;;;;;15.30;5.40;;;;;;;3.12;90.82;101307.23;107165;1252;99977;-78
2023/01/06 05:43:17;;;;;;;12.10;5.40;;;;;;;3.11;90.98;101309.71;107038;1244;138973;-77
2023/01/06 05:45:43;;;;;;;15.40;5.40;;;;;;;3.13;90.92;101308.65;107261;1246;98966;-79
2023/01/06 05:48:08;;;;;;;14.40;6.40;;;;;;;3.12;90.90;101309.54;107199;1254;98996;-78
2023/01/06 05:50:33;;;;;;;17.80;6.70;;;;;;;3.11;90.80;101312.54;107086;1245;138650;-77
2023/01/06 05:52:58;;;;;;;18.00;6.20;;;;;;;3.12;90.99;101308.13;107187;1253;98277;-78
2023/01/06 05:55:24;;;;;;;17.50;7.30;;;;;;;3.15;90.86;101299.64;107218;1252;138545;-78
2023/01/06 05:57:49;;;;;;;23.10;7.50;;;;;;;3.18;90.91;101298.75;107185;1245;98767;-78
2023/01/06 06:00:15;;;;;;;19.40;7.50;;;;;;;3.20;90.93;101299.27;107188;1244;98975;-78
2023/01/06 06:02:40;;;;;;;22.30;7.40;;;;;;;3.19;90.88;101295.73;107133;1242;138346;-78
2023/01/06 06:05:05;;;;;;;19.10;7.50;;;;;;;3.16;90.87;101297.52;107157;1251;99014;-79
2023/01/06 06:07:31;;;;;;;16.00;7.20;;;;;;;3.15;90.90;101297.52;107202;1253;138600;-78
2023/01/06 06:09:56;;;;;;;15.60;6.50;;;;;;;3.16;90.99;101295.92;107176;1230;99063;-78
2023/01/06 06:12:21;;;;;;;15.70;6.50;;;;;;;3.13;90.84;101300.70;107262;1253;98964;-78
2023/01/06 06:14:47;;;;;;;16.70;6.90;;;;;;;3.10;90.78;101301.59;107134;1238;138517;-79
2023/01/06 06:17:12;;;;;;;13.60;6.40;;;;;;;3.08;91.00;101300.18;107256;1246;99110;-78
2023/01/06 06:19:37;;;;;;;23.40;8.70;;;;;;;3.09;90.90;101304.05;107098;1252;138544;-78
2023/01/06 06:22:02;;;;;;;25.30;9.40;;;;;;;3.08;90.85;101305.13;107295;1243;98968;-78
2023/01/06 06:24:28;;;;;;;20.00;8.50;;;;;;;3.07;90.91;101307.42;107288;1244;99107;-78
2023/01/06 06:26:53;;;;;;;26.00;9.30;;;;;;;3.06;90.94;101307.42;107089;1252;139212;-78
2023/01/06 06:29:18;;;;;;;23.00;8.90;;;;;;;3.08;91.08;101307.59;107173;1252;99749;-78
2023/01/06 06:31:43;;;;;;;22.90;7.90;;;;;;;3.10;91.02;101309.02;107190;1245;140243;-78
2023/01/06 06:34:11;;;;;;;21.90;7.30;;;;;;;3.10;90.76;101306.71;107211;1247;98986;-78
2023/01/06 06:36:36;;;;;;;14.60;6.80;;;;;;;3.10;90.83;101304.95;107162;1253;99058;-78
2023/01/06 06:39:02;;;;;;;19.40;7.00;;;;;;;3.10;90.92;101301.41;107239;1249;138273;-78
2023/01/06 06:41:27;;;;;;;15.30;7.00;;;;;;;3.11;91.05;101300.36;107217;1247;99084;-77
2023/01/06 06:43:52;;;;;;;16.00;6.10;;;;;;;3.12;91.04;101300.52;107082;1254;139388;-78
2023/01/06 06:46:19;;;;;;;20.20;7.20;;;;;;;3.14;90.99;101304.93;107203;1246;99097;-79
2023/01/06 06:48:44;;;;;;;14.90;5.90;;;;;;;3.15;91.03;101306.17;107169;1246;99061;-79
2023/01/06 06:51:13;;;;;;;11.90;5.60;;;;;;;3.13;90.87;101307.41;107145;1253;138839;-77
2023/01/06 06:53:40;;;;;;;12.60;6.10;;;;;;;3.09;90.92;101307.77;107279;1246;100448;-77
2023/01/06 06:56:06;;;;;;;15.30;6.10;;;;;;;3.08;90.85;101301.60;107080;1249;138808;-76
2023/01/06 06:58:32;;;;;;;17.20;6.70;;;;;;;3.08;91.06;101300.02;107193;1246;99078;-78
2023/01/06 07:00:58;;;;;;;17.00;6.40;;;;;;;3.07;90.94;101298.59;107304;1252;113237;-76
2023/01/06 07:03:24;;;;;;;19.10;6.50;;;;;;;3.04;90.84;101291.20;107124;1246;138743;-78
2023/01/06 07:05:51;;;;;;;15.00;6.10;;;;;;;3.04;90.87;101288.55;107153;1254;99077;-78
2023/01/06 07:08:16;;;;;;;16.20;5.60;;;;;;;3.04;91.01;101283.77;107130;1253;138474;-78
2023/01/06 07:10:42;;;;;;;21.40;6.20;;;;;;;3.06;90.95;101284.30;107190;1253;99098;-78
2023/01/06 07:13:07;;;;;;;15.00;4.90;;;;;;;3.09;90.99;101285.35;107307;1245;99097;-78
2023/01/06 07:15:33;;;;;;;11.60;5.40;;;;;;;3.11;90.95;101285.52;107117;1244;138653;-78
2023/01/06 07:18:01;;;;;;;12.20;5.00;;;;;;;3.12;91.07;101284.64;107156;1254;99482;-78
2023/01/06 07:20:27;;;;;;;15.20;5.60;;;;;;;3.11;91.08;101286.40;107162;1252;138358;-79
2023/01/06 07:22:53;;;;;;;13.50;5.90;;;;;;;3.12;90.85;101283.93;107251;1239;98984;-78
2023/01/06 07:25:18;;;;;;;12.00;6.10;;;;;;;3.13;90.94;101277.04;107090;1253;138544;-78
2023/01/06 07:27:44;;;;;;;12.00;5.40;;;;;;;3.13;90.93;101279.34;107207;1253;99170;-78
2023/01/06 07:30:09;;;;;;;13.70;5.20;;;;;;;3.12;90.90;101279.34;107219;1253;99083;-78
2023/01/06 07:32:35;;;;;;;14.70;5.70;;;;;;;3.12;90.95;101281.98;107009;1254;139134;-78
2023/01/06 07:35:00;;;;;;;12.70;5.20;;;;;;;3.15;91.03;101279.33;107285;1244;99095;-77
2023/01/06 07:37:25;;;;;;;19.00;7.00;;;;;;;3.15;91.06;101277.39;107199;1243;138483;-78
2023/01/06 07:39:50;;;;;;;11.40;6.10;;;;;;;3.16;90.88;101281.80;107160;1253;98720;-77
2023/01/06 07:42:16;;;;;;;18.40;6.30;;;;;;;3.17;91.07;101281.80;107209;1252;98986;-77
2023/01/06 07:44:41;;;;;;;12.20;5.40;;;;;;;3.20;90.96;101278.78;107170;1247;139383;-78
2023/01/06 07:47:06;;;;;;;13.30;5.60;;;;;;;3.20;90.99;101280.55;107359;1252;99081;-78
2023/01/06 07:49:32;;;;;;;12.70;5.60;;;;;;;3.22;90.94;101275.77;107173;1245;138818;-78
2023/01/06 07:51:57;;;;;;;19.00;7.00;;;;;;;3.26;91.15;101270.64;107270;1260;99302;-79
2023/01/06 07:54:22;;;;;;;15.70;6.50;;;;;;;3.29;91.05;101266.04;107328;1246;99068;-79
2023/01/06 07:56:47;;;;;;;14.00;6.10;;;;;;;3.31;91.11;101271.15;107091;1260;138518;-78
2023/01/06 07:59:13;;;;;;;17.10;7.70;;;;;;;3.36;91.09;101269.02;107288;1246;99091;-78
2023/01/06 08:01:38;;;;;;;33.00;9.60;;;;;;;3.37;91.01;101263.18;107179;1250;139001;-79
2023/01/06 08:04:04;;;;;;;17.10;7.10;;;;;;;3.40;91.02;101259.27;107185;1260;99228;-79
2023/01/06 08:06:29;;;;;;;17.80;6.30;;;;;;;3.44;91.01;101262.63;107257;1245;106318;-78
2023/01/06 08:08:54;;;;;;;21.00;6.60;;;;;;;3.42;90.82;101254.51;107169;1245;138537;-78
2023/01/06 08:11:19;;;;;;;16.20;7.00;;;;;;;3.41;90.84;101250.09;107316;1238;99104;-79
2023/01/06 08:13:45;;;;;;;13.40;5.90;;;;;;;3.42;90.90;101247.09;107146;1247;138549;-79
2023/01/06 08:16:11;;;;;;;15.10;6.00;;;;;;;3.42;90.90;101247.96;107354;1246;99089;-79
2023/01/06 08:18:37;;;;;;;18.50;6.10;;;;;;;3.43;91.00;101246.36;107254;1252;98981;-80
2023/01/06 08:21:10;;;;;;;14.60;5.60;;;;;;;3.47;91.18;101243.70;107112;1245;139264;-79
2023/01/06 08:23:35;;;;;;;12.70;5.60;;;;;;;3.51;90.96;101237.15;107216;1252;99035;-78
2023/01/06 08:26:06;;;;;;;15.10;5.40;;;;;;;3.54;91.04;101241.02;107180;1246;139742;-78
2023/01/06 08:28:32;;;;;;;13.30;6.30;;;;;;;3.59;90.92;101242.77;107269;1236;99080;-78
2023/01/06 08:30:57;;;;;;;20.40;6.60;;;;;;;3.63;90.87;101248.22;107220;1244;99072;-78
2023/01/06 08:33:24;;;;;;;22.90;8.90;;;;;;;3.65;90.90;101262.88;107231;1245;138463;-78
2023/01/06 08:35:51;;;;;;;30.20;11.90;;;;;;;3.66;90.88;101267.29;107095;1237;107477;-78
2023/01/06 08:38:16;;;;;;;25.60;10.50;;;;;;;3.68;90.77;101268.87;107149;1243;138848;-79
2023/01/06 08:40:42;;;;;;;23.70;9.30;;;;;;;3.69;90.86;101266.73;107170;1254;99042;-79
2023/01/06 08:43:07;;;;;;;9.80;6.60;;;;;;;3.74;90.92;101268.13;107127;1254;100087;-79
2023/01/06 08:45:38;;;;;;;17.20;8.10;;;;;;;3.78;91.05;101267.75;107086;1245;138218;-77
2023/01/06 08:48:03;;;;;;;13.60;6.20;;;;;;;3.80;90.83;101272.34;107299;1238;100462;-78
2023/01/06 08:50:29;;;;;;;16.80;7.20;;;;;;;3.80;90.82;101271.27;107237;1245;138595;-78
2023/01/06 08:52:54;;;;;;;10.50;6.00;;;;;;;3.82;90.88;101263.66;107404;1245;99993;-78
2023/01/06 08:55:19;;;;;;;12.60;5.30;;;;;;;3.88;90.96;101251.96;107126;1246;138695;-78
2023/01/06 08:57:44;;;;;;;10.20;5.00;;;;;;;3.94;90.82;101244.67;107348;1251;100539;-78
2023/01/06 09:00:10;;;;;;;8.90;5.10;;;;;;;3.96;90.97;101243.08;107293;1243;99003;-78
2023/01/06 09:02:36;;;;;;;12.20;6.10;;;;;;;3.98;90.87;101236.16;107231;1251;138181;-78
2023/01/06 09:05:01;;;;;;;8.50;4.70;;;;;;;4.03;90.86;101229.23;107273;1252;99269;-79
2023/01/06 09:07:26;;;;;;;16.80;6.30;;;;;;;4.08;90.70;101234.14;107190;1251;138413;-79
2023/01/06 09:09:51;;;;;;;13.70;6.50;;;;;;;4.11;90.87;101232.89;107388;1251;99400;-78
2023/01/06 09:12:17;;;;;;;16.70;6.80;;;;;;;4.12;90.63;101226.86;107143;1244;99973;-78
2023/01/06 09:14:42;;;;;;;20.80;7.20;;;;;;;4.11;90.60;101220.33;107202;1243;139356;-79
2023/01/06 09:17:07;;;;;;;20.40;7.20;;;;;;;4.12;90.49;101215.37;107438;1245;99110;-78
2023/01/06 09:19:33;;;;;;;14.20;5.60;;;;;;;4.14;90.56;101209.88;107207;1243;139932;-78
2023/01/06 09:21:58;;;;;;;11.80;4.90;;;;;;;4.16;90.74;101214.98;107357;1251;99079;-78
2023/01/06 09:24:23;;;;;;;25.70;10.10;;;;;;;4.16;90.31;101222.05;107238;1251;99032;-79
2023/01/06 09:26:48;;;;;;;32.80;11.60;;;;;;;4.16;90.65;101215.16;107294;1245;139660;-78
2023/01/06 09:29:14;;;;;;;22.60;9.40;;;;;;;4.17;90.51;101203.48;107374;1251;99049;-78
2023/01/06 09:31:39;;;;;;;20.70;7.20;;;;;;;4.20;90.59;101200.09;106979;1254;139288;-78
2023/01/06 09:34:04;;;;;;;14.80;6.70;;;;;;;4.24;90.45;101199.88;107430;1243;99083;-78
2023/01/06 09:36:31;;;;;;;17.90;7.70;;;;;;;4.26;90.44;101192.60;107375;1246;98976;-78
2023/01/06 09:38:57;;;;;;;16.70;7.70;;;;;;;4.30;90.57;101186.73;107093;1243;138556;-79
2023/01/06 09:42:06;;;;;;;17.00;9.50;;;;;;;4.33;90.45;101181.94;107338;1252;99124;-78
2023/01/06 09:44:56;;;;;;;22.90;8.30;;;;;;;4.35;90.47;101175.37;107202;1251;138349;-79
2023/01/06 09:47:30;;;;;;;14.50;6.60;;;;;;;4.34;90.35;101171.48;107302;1244;99297;-78
2023/01/06 09:50:08;;;;;;;13.70;7.00;;;;;;;4.32;90.37;101174.33;107119;1246;138826;-78
2023/01/06 09:52:45;;;;;;;16.70;9.00;;;;;;;4.32;90.32;101175.75;107193;1246;99163;-79
2023/01/06 09:55:40;;;;;;;19.80;9.00;;;;;;;4.31;90.14;101176.11;107346;1249;99127;-79
2023/01/06 09:58:15;;;;;;;16.30;8.60;;;;;;;4.29;90.08;101164.80;107259;1245;113537;-77
2023/01/06 10:00:46;;;;;;;14.00;6.80;;;;;;;4.28;90.09;101157.21;107202;1243;99851;-78
2023/01/06 10:03:17;;;;;;;18.50;6.70;;;;;;;4.33;90.28;101164.95;107191;1247;138754;-79
2023/01/06 10:05:57;;;;;;;12.70;6.00;;;;;;;4.36;90.25;101154.13;107336;1251;98667;-79
2023/01/06 10:08:53;;;;;;;14.00;7.10;;;;;;;4.37;90.02;101155.89;107305;1252;139295;-78
2023/01/06 10:11:43;;;;;;;18.20;8.40;;;;;;;4.39;89.99;101154.81;107327;1249;113074;-78
2023/01/06 10:14:27;;;;;;;24.20;9.70;;;;;;;4.40;90.07;101134.80;107221;1246;139444;-79
2023/01/06 10:17:22;;;;;;;16.00;8.10;;;;;;;4.44;90.05;101128.04;107360;1251;107528;-80
2023/01/06 10:20:12;;;;;;;13.80;8.50;;;;;;;4.47;90.02;101126.06;107194;1238;138691;-79
2023/01/06 10:23:05;;;;;;;13.10;7.30;;;;;;;4.46;89.97;101129.95;107329;1251;99139;-79
2023/01/06 10:25:39;;;;;;;15.90;8.40;;;;;;;4.42;89.82;101129.65;107194;1239;138630;-78
2023/01/06 10:28:29;;;;;;;18.70;9.00;;;;;;;4.32;89.70;101120.20;107258;1239;99263;-79
2023/01/06 10:30:59;;;;;;;15.60;8.60;;;;;;;4.25;89.57;101114.25;107367;1245;109004;-79
2023/01/06 10:33:31;;;;;;;15.10;8.70;;;;;;;4.22;89.72;101109.85;107095;1260;138501;-79
2023/01/06 10:35:59;;;;;;;20.40;9.10;;;;;;;4.22;89.74;101103.85;107256;1238;98650;-78
2023/01/06 10:38:41;;;;;;;21.30;9.60;;;;;;;4.21;89.69;101094.83;107173;1233;138754;-79
2023/01/06 10:41:20;;;;;;;23.40;9.80;;;;;;;4.26;89.88;101094.08;107330;1250;99709;-78
2023/01/06 10:43:46;;;;;;;22.50;10.30;;;;;;;4.30;89.89;101091.38;107219;1243;138549;-79
2023/01/06 10:46:11;;;;;;;18.80;11.10;;;;;;;4.32;89.91;101095.25;107304;1237;99016;-78
2023/01/06 10:48:38;;;;;;;18.60;10.90;;;;;;;4.37;89.68;101097.33;107427;1251;98928;-79
2023/01/06 10:51:34;;;;;;;28.10;12.70;;;;;;;4.40;89.79;101087.73;107059;1254;139793;-79
2023/01/06 10:54:06;;;;;;;37.40;13.10;;;;;;;4.40;89.74;101071.29;107254;1239;107472;-80
2023/01/06 10:56:34;;;;;;;25.40;11.20;;;;;;;4.41;89.77;101065.25;107240;1243;138700;-78
2023/01/06 10:59:08;;;;;;;28.50;12.30;;;;;;;4.40;89.55;101066.85;107378;1244;98233;-79
2023/01/06 11:01:36;;;;;;;17.70;8.90;;;;;;;4.37;89.75;101052.38;107231;1253;138674;-79
2023/01/06 11:04:10;;;;;;;22.60;10.30;;;;;;;4.38;89.65;101039.10;107237;1238;99529;-79
2023/01/06 11:06:44;;;;;;;18.80;10.30;;;;;;;4.40;89.68;101034.48;107381;1250;108027;-78
2023/01/06 11:09:37;;;;;;;18.90;9.50;;;;;;;4.42;89.82;101021.00;107169;1244;138998;-79
2023/01/06 11:12:11;;;;;;;18.80;10.20;;;;;;;4.43;89.71;101010.55;107354;1251;98667;-80
2023/01/06 11:14:38;;;;;;;21.60;11.70;;;;;;;4.44;89.65;101001.87;107145;1251;138668;-79
2023/01/06 11:17:07;;;;;;;18.00;10.60;;;;;;;4.47;89.78;100992.80;107327;1246;99111;-78
2023/01/06 11:19:37;;;;;;;17.90;9.30;;;;;;;4.47;89.46;100991.04;107262;1245;138718;-78
2023/01/06 11:22:04;;;;;;;21.60;10.90;;;;;;;4.46;89.50;100985.39;107361;1235;99103;-78
2023/01/06 11:24:31;;;;;;;19.70;10.70;;;;;;;4.45;89.55;100982.21;107304;1245;99160;-79
2023/01/06 11:27:17;;;;;;;30.30;10.90;;;;;;;4.44;89.65;100973.20;107247;1243;138475;-79
2023/01/06 11:29:42;;;;;;;24.50;11.30;;;;;;;4.44;89.41;100973.20;107351;1243;100565;-79